Time;durP1;ratioP1;P1;durP2;ratioP2;P2;SDS_P1;SDS_P2;PMS_P1;PMS_P2;Temp;Humidity;BMP_temperature;BMP_pressure;BME280_temperature;BME280_humidity;BME280_pressure;Samples;Min_cycle;Max_cycle;Signal;HPM_P1;HPM_P2
2022/08/22 00:03:55;;;;;;;3.20;2.00;;;;;;;19.66;100.00;100190.20;655749;1277;140723;-87
2022/08/22 00:19:15;;;;;;;4.30;2.10;;;;;;;19.62;100.00;100202.39;654967;1277;139398;-88
2022/08/22 00:34:33;;;;;;;5.70;1.90;;;;;;;19.47;100.00;100206.39;655410;1277;1420195;-86
2022/08/22 00:50:27;;;;;;;5.80;2.70;;;;;;;19.18;100.00;100214.55;655738;1277;140822;-86
2022/08/22 01:05:39;;;;;;;7.10;1.60;;;;;;;19.09;100.00;100222.61;655169;1277;140980;-84
2022/08/22 01:21:33;;;;;;;3.70;1.90;;;;;;;19.00;100.00;100236.13;654987;1277;139601;-84
2022/08/22 01:37:11;;;;;;;4.70;1.70;;;;;;;18.87;100.00;100239.83;655279;1277;140591;-85
2022/08/22 01:52:33;;;;;;;5.10;1.90;;;;;;;18.82;100.00;100236.91;655071;1277;23959;-84
2022/08/22 02:08:05;;;;;;;3.90;1.50;;;;;;;18.71;100.00;100231.95;656169;1277;23627;-84
2022/08/22 02:23:29;;;;;;;6.80;2.60;;;;;;;18.79;100.00;100233.22;655080;1277;22536;-83
2022/08/22 02:38:41;;;;;;;4.60;1.90;;;;;;;18.84;100.00;100245.48;655447;1277;22567;-84
2022/08/22 02:54:11;;;;;;;2.70;2.00;;;;;;;18.79;100.00;100246.95;656345;1277;22567;-83
2022/08/22 03:09:14;;;;;;;3.30;2.00;;;;;;;18.75;100.00;100251.57;656123;1277;23608;-84
2022/08/22 03:24:37;;;;;;;3.00;1.40;;;;;;;18.65;100.00;100252.05;659748;1277;25469;-85
2022/08/22 03:39:58;;;;;;;3.80;1.70;;;;;;;18.67;100.00;100263.70;655985;1277;24265;-85
2022/08/22 03:55:19;;;;;;;2.60;1.50;;;;;;;18.80;100.00;100265.61;656538;1277;24893;-87
2022/08/22 04:10:49;;;;;;;150.30;55.80;;;;;;;18.84;100.00;100259.63;656253;1277;22697;-86
2022/08/22 04:25:58;;;;;;;8.40;6.10;;;;;;;18.78;100.00;100267.95;657127;1277;23594;-85
2022/08/22 04:41:15;;;;;;;4.40;2.40;;;;;;;18.93;100.00;100284.31;658350;1277;22740;-88
2022/08/22 04:57:11;;;;;;;5.60;2.30;;;;;;;18.95;100.00;100292.84;660556;1277;24357;-85
2022/08/22 05:12:22;;;;;;;4.60;2.90;;;;;;;19.11;100.00;100292.49;656010;1277;23322;-86
2022/08/22 05:27:34;;;;;;;4.60;2.10;;;;;;;19.15;100.00;100303.92;661155;1277;30941;-85
2022/08/22 05:42:38;;;;;;;3.90;2.70;;;;;;;19.21;100.00;100307.98;656269;1277;25020;-86
2022/08/22 05:57:47;;;;;;;6.70;3.60;;;;;;;19.32;100.00;100312.13;657987;1277;24257;-87
2022/08/22 06:13:02;;;;;;;;;;;;;;;19.46;100.00;100313.11;656843;1277;25356;-85
2022/08/22 06:28:15;;;;;;;6.10;2.60;;;;;;;19.62;100.00;100313.07;657904;1277;25425;-86
2022/08/22 06:43:21;;;;;;;3.70;2.70;;;;;;;19.84;100.00;100322.19;665905;1277;23280;-86
2022/08/22 06:58:34;;;;;;;7.20;2.70;;;;;;;19.93;100.00;100339.20;658963;1277;22703;-86
2022/08/22 07:13:42;;;;;;;5.80;3.20;;;;;;;20.31;100.00;100350.23;657369;1277;22553;-85
2022/08/22 07:28:52;;;;;;;5.20;3.20;;;;;;;20.61;100.00;100347.60;657020;1275;22614;-85
2022/08/22 07:44:15;;;;;;;9.10;3.70;;;;;;;21.12;100.00;100348.86;659259;1277;24313;-86
2022/08/22 07:59:21;;;;;;;6.60;3.50;;;;;;;21.08;100.00;100362.68;656528;1277;23651;-85
2022/08/22 08:14:25;;;;;;;5.70;3.80;;;;;;;21.20;100.00;100371.20;657246;1277;22560;-86
2022/08/22 08:29:31;;;;;;;7.70;4.10;;;;;;;21.36;100.00;100375.39;658863;1277;23615;-84
2022/08/22 08:44:53;;;;;;;8.40;5.60;;;;;;;21.77;100.00;100377.67;657378;1277;24478;-83
2022/08/22 09:00:32;;;;;;;5.40;3.90;;;;;;;21.97;100.00;100374.24;658839;1277;25692;-84
2022/08/22 09:16:04;;;;;;;6.40;3.40;;;;;;;22.25;100.00;100370.39;660598;1276;22844;-84
2022/08/22 09:31:14;;;;;;;5.90;3.50;;;;;;;22.66;100.00;100365.04;660642;1277;22540;-86
2022/08/22 09:47:02;;;;;;;3.80;2.90;;;;;;;22.70;100.00;100376.59;661154;1277;24026;-86
2022/08/22 10:02:33;;;;;;;8.10;3.80;;;;;;;22.73;100.00;100375.05;661778;1277;23372;-85
2022/08/22 10:18:01;;;;;;;11.60;4.60;;;;;;;22.91;100.00;100377.16;660685;1277;23087;-85
2022/08/22 10:33:13;;;;;;;7.50;3.60;;;;;;;23.30;100.00;100377.35;659168;1277;23488;-85
2022/08/22 10:48:19;;;;;;;9.40;4.20;;;;;;;23.49;100.00;100382.15;661109;1277;23639;-87
2022/08/22 11:03:33;;;;;;;20.00;10.60;;;;;;;23.64;100.00;100382.27;660733;1277;22559;-85
2022/08/22 11:19:11;;;;;;;5.90;3.40;;;;;;;23.70;100.00;100379.30;662212;1277;22549;-85
2022/08/22 11:34:33;;;;;;;6.50;3.40;;;;;;;24.08;100.00;100381.31;658333;1277;22717;-78
2022/08/22 11:49:51;;;;;;;7.70;2.60;;;;;;;25.04;100.00;100386.80;657461;1277;23291;-80
2022/08/22 12:05:29;;;;;;;7.90;5.00;;;;;;;26.41;100.00;100382.52;656874;1278;25388;-80
2022/08/22 12:20:40;;;;;;;5.20;3.50;;;;;;;27.76;100.00;100381.96;657986;1277;22551;-88
2022/08/22 12:36:14;;;;;;;3.30;2.50;;;;;;;27.18;100.00;100376.33;660695;1277;1299395;-82
2022/08/22 12:51:44;;;;;;;8.60;2.70;;;;;;;26.51;100.00;100377.15;658233;1277;25389;-78
2022/08/22 13:06:58;;;;;;;5.50;2.60;;;;;;;26.65;100.00;100372.48;656671;1277;31559;-79
2022/08/22 13:22:15;;;;;;;4.60;3.00;;;;;;;27.48;99.52;100363.59;656978;1277;22583;-82
2022/08/22 13:37:30;;;;;;;3.40;2.40;;;;;;;27.40;98.04;100370.84;659584;1278;25323;-80
2022/08/22 13:52:42;;;;;;;3.50;2.40;;;;;;;26.92;97.81;100370.73;657099;1277;25270;-80
2022/08/22 14:08:17;;;;;;;5.40;2.40;;;;;;;27.04;97.83;100355.12;656981;1277;24278;-83
2022/08/22 14:23:27;;;;;;;4.00;2.70;;;;;;;27.11;96.34;100347.70;657787;1277;22698;-82
2022/08/22 14:38:37;;;;;;;3.60;2.50;;;;;;;27.90;94.91;100336.70;658377;1277;22630;-82
2022/08/22 14:53:49;;;;;;;3.20;1.80;;;;;;;28.38;91.35;100331.49;658285;1280;24274;-78
2022/08/22 15:08:53;;;;;;;3.20;2.20;;;;;;;27.62;90.55;100339.92;658969;1278;25408;-83
2022/08/22 15:24:02;;;;;;;3.70;2.30;;;;;;;26.88;90.05;100337.98;657269;1277;22601;-82
2022/08/22 15:39:31;;;;;;;4.80;2.20;;;;;;;26.67;90.87;100331.99;656440;1277;23080;-83
2022/08/22 15:54:35;;;;;;;4.10;2.10;;;;;;;28.14;88.02;100322.52;659763;1277;22563;-83
2022/08/22 16:09:52;;;;;;;5.20;3.00;;;;;;;27.90;85.71;100311.92;656880;1277;22566;-80
2022/08/22 16:25:01;;;;;;;6.00;3.40;;;;;;;27.15;85.77;100313.98;658038;1277;25493;-80
2022/08/22 16:40:17;;;;;;;7.60;4.70;;;;;;;26.38;86.56;100323.18;658230;1277;22700;-85
2022/08/22 16:55:27;;;;;;;7.80;4.30;;;;;;;25.70;88.25;100317.23;658267;1278;24441;-81
2022/08/22 17:10:50;;;;;;;5.00;2.70;;;;;;;24.93;90.26;100332.20;660318;1277;22551;-81
2022/08/22 17:26:12;;;;;;;14.00;10.10;;;;;;;24.48;92.08;100348.04;657236;1277;22566;-82
2022/08/22 17:41:32;;;;;;;7.00;5.20;;;;;;;24.03;93.29;100368.46;656246;1278;22837;-81
2022/08/22 17:56:54;;;;;;;10.40;6.60;;;;;;;23.66;94.51;100380.70;656601;1277;22566;-82
2022/08/22 18:12:27;;;;;;;8.50;3.80;;;;;;;23.34;95.95;100379.27;657616;1278;24311;-82
2022/08/22 18:27:54;;;;;;;41.40;18.00;;;;;;;23.04;97.21;100389.15;657055;1277;23676;-81
2022/08/22 18:43:04;;;;;;;22.30;8.60;;;;;;;22.77;98.44;100397.80;657919;1277;25385;-81
2022/08/22 18:58:33;;;;;;;17.90;7.50;;;;;;;22.53;99.14;100399.55;658091;1277;22808;-80
2022/08/22 19:13:55;;;;;;;10.30;5.50;;;;;;;22.35;99.92;100397.29;657682;1278;24358;-81
2022/08/22 19:29:04;;;;;;;5.40;3.30;;;;;;;22.28;100.00;100399.57;660929;1277;25345;-81
2022/08/22 19:44:18;;;;;;;4.90;3.20;;;;;;;22.21;100.00;100402.35;658850;1277;22654;-82
2022/08/22 19:59:45;;;;;;;4.90;3.00;;;;;;;22.00;100.00;100412.20;656943;1277;25379;-81
2022/08/22 20:14:55;;;;;;;4.30;2.40;;;;;;;21.93;100.00;100409.59;657742;1277;25478;-83
2022/08/22 20:30:05;;;;;;;3.70;3.10;;;;;;;21.84;100.00;100398.95;660844;1277;23529;-81
2022/08/22 20:45:08;;;;;;;5.90;2.70;;;;;;;21.77;100.00;100393.73;658971;1277;22579;-81
2022/08/22 21:00:18;;;;;;;3.80;2.70;;;;;;;21.69;100.00;100393.05;657629;1277;25576;-82
2022/08/22 21:15:33;;;;;;;4.00;2.70;;;;;;;21.56;100.00;100392.99;656916;1277;22538;-82
2022/08/22 21:30:37;;;;;;;3.30;2.50;;;;;;;21.49;100.00;100382.51;657878;1277;24339;-82
2022/08/22 21:45:42;;;;;;;5.40;2.90;;;;;;;21.34;100.00;100367.72;657298;1277;22553;-83
2022/08/22 22:01:09;;;;;;;5.90;3.00;;;;;;;21.19;100.00;100357.08;656836;1277;26868;-82
2022/08/22 22:16:23;;;;;;;5.50;2.90;;;;;;;21.09;100.00;100340.70;655206;1277;23482;-82
2022/08/22 22:31:27;;;;;;;5.20;2.60;;;;;;;20.94;100.00;100342.06;657118;1277;23490;-81
2022/08/22 22:46:30;;;;;;;5.10;3.10;;;;;;;20.89;100.00;100345.08;656002;1277;25316;-81
2022/08/22 23:01:33;;;;;;;5.50;2.90;;;;;;;20.75;100.00;100343.35;657617;1277;25458;-80
2022/08/22 23:16:39;;;;;;;6.90;3.00;;;;;;;20.56;100.00;100331.85;657361;1277;23414;-82
2022/08/22 23:31:52;;;;;;;9.60;2.80;;;;;;;20.32;100.00;100316.88;657333;1278;26453;-82
2022/08/22 23:46:58;;;;;;;6.70;3.40;;;;;;;20.18;100.00;100311.00;657504;1277;22563;-80
